Melbourne Strait — D5GX2 — position and weather

sailwx.info

Track history (hours):
 
Tides and Currents Weather Stations Pressure Air Temp Water Temp Dewpoint Dewpoint Depression Visibility Wind Speed Wind Dir Waves Ship Positions

Melbourne Strait

Last reported at 2017-Nov-19 00:19 UTC. Time now 2017-Nov-19 05:08 UTC.
Position N 25°55' W 079°39'.

Length 180 m; draft 7.8 m.

Type: Cargo ship. MMSI: 636016590.

Date/timePositionNaut miles runAvg speedWind from/ knotsBaromVisibWave heightAir tempDewpointWater temp
2017-Nov-19 00:19N 25°55' W 079°39'517.6
2017-Nov-19 00:00N 25°58' W 079°44'816.9
2017-Nov-18 23:30N 26°01' W 079°53'714.4
2017-Nov-18 23:00N 26°03' W 080°00'612.1
2017-Nov-18 22:30N 26°06' W 080°07'1 2.6
2017-Nov-18 22:00N 26°04' W 080°07'0 0.0
2017-Nov-18 21:28N 26°04' W 080°07'0 0.0
2017-Nov-18 20:43N 26°04' W 080°07'0 0.0
2017-Nov-18 20:28N 26°04' W 080°07'0 0.0
2017-Nov-18 19:58N 26°04' W 080°07'0 0.0
2017-Nov-18 19:28N 26°04' W 080°07'0 0.0
2017-Nov-18 18:58N 26°04' W 080°07'0 0.0
2017-Nov-18 18:28N 26°04' W 080°07'0 0.0
2017-Nov-18 17:58N 26°04' W 080°07'0 0.0
2017-Nov-18 17:28N 26°04' W 080°07'0 0.0
2017-Nov-18 16:58N 26°04' W 080°07'0 0.0
2017-Nov-18 16:28N 26°04' W 080°07'0 0.0
2017-Nov-18 15:58N 26°04' W 080°07'0 0.0
2017-Nov-18 15:28N 26°04' W 080°07'0 0.0
2017-Nov-18 14:49N 26°04' W 080°07'0 0.0
2017-Nov-18 14:19N 26°04' W 080°07'0 0.0
2017-Nov-18 13:52N 26°04' W 080°07'0 0.0
2017-Nov-18 13:22N 26°04' W 080°07'0 0.0
2017-Nov-18 12:52N 26°04' W 080°07'0 0.0
2017-Nov-18 12:22N 26°04' W 080°07'0 0.0
2017-Nov-18 11:52N 26°04' W 080°07'0 0.0
2017-Nov-18 11:22N 26°04' W 080°07'0 0.0
2017-Nov-18 10:55N 26°04' W 080°07'0 0.0
2017-Nov-18 10:25N 26°04' W 080°07'0 0.0
2017-Nov-18 09:55N 26°04' W 080°07'0 0.0
2017-Nov-18 09:22N 26°04' W 080°07'0 0.0
2017-Nov-18 08:55N 26°04' W 080°07'0 0.0
2017-Nov-18 08:25N 26°04' W 080°07'0 0.0
2017-Nov-18 07:58N 26°04' W 080°07'0 0.0
2017-Nov-18 07:28N 26°04' W 080°07'0 0.0
2017-Nov-18 06:58N 26°04' W 080°07'0 0.0
2017-Nov-18 06:28N 26°04' W 080°07'0 0.0
2017-Nov-18 05:58N 26°04' W 080°07'0 0.0
2017-Nov-18 05:28N 26°04' W 080°07'0 0.0
2017-Nov-18 04:58N 26°04' W 080°07'0 0.0
2017-Nov-18 04:28N 26°04' W 080°07'0 0.0
2017-Nov-18 03:58N 26°04' W 080°07'0 0.0
2017-Nov-18 03:28N 26°04' W 080°07'0 0.0
2017-Nov-18 02:58N 26°04' W 080°07'0 0.0
2017-Nov-18 02:16N 26°04' W 080°07'0 0.0
2017-Nov-18 01:58N 26°04' W 080°07'0 0.0
2017-Nov-18 01:28N 26°04' W 080°07'0 0.0
2017-Nov-18 00:49N 26°04' W 080°07'1 2.4
2017-Nov-18 00:30N 26°05' W 080°07'1 1.5
2017-Nov-18 00:00N 26°06' W 080°07'0 0.0
2017-Nov-17 23:30N 26°06' W 080°07'0 0.0
2017-Nov-17 23:00N 26°06' W 080°07'0 0.0
2017-Nov-17 22:30N 26°06' W 080°07'0 0.0
2017-Nov-17 21:51N 26°06' W 080°07'0 0.0
2017-Nov-17 21:30N 26°06' W 080°07'0 0.0
2017-Nov-17 20:51N 26°06' W 080°07'0 0.0
2017-Nov-17 20:18N 26°06' W 080°07'0 0.0
2017-Nov-17 19:51N 26°06' W 080°07'0 0.0
2017-Nov-17 19:24N 26°06' W 080°07'0 0.0
2017-Nov-17 18:54N 26°06' W 080°07'0 0.0
2017-Nov-17 18:24N 26°06' W 080°07'0 0.0
2017-Nov-17 17:54N 26°06' W 080°07'0 0.4
2017-Nov-17 17:30N 26°06' W 080°07'3 5.5
2017-Nov-17 17:00N 26°06' W 080°04'0 0.8
2017-Nov-17 16:30N 26°06' W 080°04'1 1.4
2017-Nov-17 16:00N 26°06' W 080°03'1 2.4
2017-Nov-17 15:30N 26°07' W 080°02'4 8.1
2017-Nov-17 15:00N 26°11' W 080°02'815.4
2017-Nov-17 14:30N 26°19' W 080°01'917.3
2017-Nov-17 14:00N 26°27' W 079°60'917.2
2017-Nov-17 13:30N 26°36' W 079°59'1216.1
2017-Nov-17 12:46N 26°48' W 079°58'415.4
2017-Nov-17 12:30N 26°52' W 079°57'715.0
2017-Nov-17 12:00N 26°59' W 079°57'45 1.0
2017-Nov-15 14:53N 26°24' W 079°27'719.5
2017-Nov-15 14:31N 26°17' W 079°27'1019.4
2017-Nov-15 14:00N 26°07' W 079°27'1019.0
2017-Nov-15 13:31N 25°57' W 079°26'1019.1
2017-Nov-15 13:01N 25°48' W 079°27'1019.5
2017-Nov-15 12:30N 25°38' W 079°26'1019.8
2017-Nov-15 12:01N 25°28' W 079°26'  
Track history (hours):
 
Tides and Currents Weather Stations Pressure Air Temp Water Temp Dewpoint Dewpoint Depression Visibility Wind Speed Wind Dir Waves Ship Positions

Melbourne Strait

Last reported at 2017-Nov-19 00:19 UTC. Time now 2017-Nov-19 05:08 UTC.
Position N 25°55' W 079°39'.

Length 180 m; draft 7.8 m.

Type: Cargo ship. MMSI: 636016590.

Date/timePositionNaut miles runAvg speedWind from/ knotsBaromVisibWave heightAir tempDewpointWater temp
2017-Nov-19 00:19N 25°55' W 079°39'517.6
2017-Nov-19 00:00N 25°58' W 079°44'816.9
2017-Nov-18 23:30N 26°01' W 079°53'714.4
2017-Nov-18 23:00N 26°03' W 080°00'612.1
2017-Nov-18 22:30N 26°06' W 080°07'1 2.6
2017-Nov-18 22:00N 26°04' W 080°07'0 0.0
2017-Nov-18 21:28N 26°04' W 080°07'0 0.0
2017-Nov-18 20:43N 26°04' W 080°07'0 0.0
2017-Nov-18 20:28N 26°04' W 080°07'0 0.0
2017-Nov-18 19:58N 26°04' W 080°07'0 0.0
2017-Nov-18 19:28N 26°04' W 080°07'0 0.0
2017-Nov-18 18:58N 26°04' W 080°07'0 0.0
2017-Nov-18 18:28N 26°04' W 080°07'0 0.0
2017-Nov-18 17:58N 26°04' W 080°07'0 0.0
2017-Nov-18 17:28N 26°04' W 080°07'0 0.0
2017-Nov-18 16:58N 26°04' W 080°07'0 0.0
2017-Nov-18 16:28N 26°04' W 080°07'0 0.0
2017-Nov-18 15:58N 26°04' W 080°07'0 0.0
2017-Nov-18 15:28N 26°04' W 080°07'0 0.0
2017-Nov-18 14:49N 26°04' W 080°07'0 0.0
2017-Nov-18 14:19N 26°04' W 080°07'0 0.0
2017-Nov-18 13:52N 26°04' W 080°07'0 0.0
2017-Nov-18 13:22N 26°04' W 080°07'0 0.0
2017-Nov-18 12:52N 26°04' W 080°07'0 0.0
2017-Nov-18 12:22N 26°04' W 080°07'0 0.0
2017-Nov-18 11:52N 26°04' W 080°07'0 0.0
2017-Nov-18 11:22N 26°04' W 080°07'0 0.0
2017-Nov-18 10:55N 26°04' W 080°07'0 0.0
2017-Nov-18 10:25N 26°04' W 080°07'0 0.0
2017-Nov-18 09:55N 26°04' W 080°07'0 0.0
2017-Nov-18 09:22N 26°04' W 080°07'0 0.0
2017-Nov-18 08:55N 26°04' W 080°07'0 0.0
2017-Nov-18 08:25N 26°04' W 080°07'0 0.0
2017-Nov-18 07:58N 26°04' W 080°07'0 0.0
2017-Nov-18 07:28N 26°04' W 080°07'0 0.0
2017-Nov-18 06:58N 26°04' W 080°07'0 0.0
2017-Nov-18 06:28N 26°04' W 080°07'0 0.0
2017-Nov-18 05:58N 26°04' W 080°07'0 0.0
2017-Nov-18 05:28N 26°04' W 080°07'0 0.0
2017-Nov-18 04:58N 26°04' W 080°07'0 0.0
2017-Nov-18 04:28N 26°04' W 080°07'0 0.0
2017-Nov-18 03:58N 26°04' W 080°07'0 0.0
2017-Nov-18 03:28N 26°04' W 080°07'0 0.0
2017-Nov-18 02:58N 26°04' W 080°07'0 0.0
2017-Nov-18 02:16N 26°04' W 080°07'0 0.0
2017-Nov-18 01:58N 26°04' W 080°07'0 0.0
2017-Nov-18 01:28N 26°04' W 080°07'0 0.0
2017-Nov-18 00:49N 26°04' W 080°07'1 2.4
2017-Nov-18 00:30N 26°05' W 080°07'1 1.5
2017-Nov-18 00:00N 26°06' W 080°07'0 0.0
2017-Nov-17 23:30N 26°06' W 080°07'0 0.0
2017-Nov-17 23:00N 26°06' W 080°07'0 0.0
2017-Nov-17 22:30N 26°06' W 080°07'0 0.0
2017-Nov-17 21:51N 26°06' W 080°07'0 0.0
2017-Nov-17 21:30N 26°06' W 080°07'0 0.0
2017-Nov-17 20:51N 26°06' W 080°07'0 0.0
2017-Nov-17 20:18N 26°06' W 080°07'0 0.0
2017-Nov-17 19:51N 26°06' W 080°07'0 0.0
2017-Nov-17 19:24N 26°06' W 080°07'0 0.0
2017-Nov-17 18:54N 26°06' W 080°07'0 0.0
2017-Nov-17 18:24N 26°06' W 080°07'0 0.0
2017-Nov-17 17:54N 26°06' W 080°07'0 0.4
2017-Nov-17 17:30N 26°06' W 080°07'3 5.5
2017-Nov-17 17:00N 26°06' W 080°04'0 0.8
2017-Nov-17 16:30N 26°06' W 080°04'1 1.4
2017-Nov-17 16:00N 26°06' W 080°03'1 2.4
2017-Nov-17 15:30N 26°07' W 080°02'4 8.1
2017-Nov-17 15:00N 26°11' W 080°02'815.4
2017-Nov-17 14:30N 26°19' W 080°01'917.3
2017-Nov-17 14:00N 26°27' W 079°60'917.2
2017-Nov-17 13:30N 26°36' W 079°59'1216.1
2017-Nov-17 12:46N 26°48' W 079°58'415.4
2017-Nov-17 12:30N 26°52' W 079°57'715.0
2017-Nov-17 12:00N 26°59' W 079°57'45 1.0
2017-Nov-15 14:53N 26°24' W 079°27'719.5
2017-Nov-15 14:31N 26°17' W 079°27'1019.4
2017-Nov-15 14:00N 26°07' W 079°27'1019.0
2017-Nov-15 13:31N 25°57' W 079°26'1019.1
2017-Nov-15 13:01N 25°48' W 079°27'1019.5
2017-Nov-15 12:30N 25°38' W 079°26'1019.8
2017-Nov-15 12:01N 25°28' W 079°26'  

Dump ship's entire track history